SUCCESS DAM (SCC)

Elevation: 692' · TULE R basin · Operator: US Army Corps of Engineers

Provisional data, subject to change.
Query executed Friday at 11:09:22   clock

Select a sensor type for a plot of data.
Note: Reservoir Flows are daily averages.

Earlier

Date RES ELE    STORAGE    RES CHG    TOC STO    ABV TOC    OUTFLOW    INFLOW    FNF    PPT INC    PPTINC4    TEMP MN    TEMP MX    WINDLEN    EVP PAN   
 FEET   AF   AF   AF   AF   CFS   CFS   CFS   INCHES   INCHES   DEG F   DEG F   MILES   INCHES  
04/28/2016 633.87 46264 234 63742 -17478 30 154 154 0.00 0.00 10 21 64 0.15
04/29/2016 634.01 46470 206 64034 -17564 31 145 145 0.05 0.00 13 27 63 0.24
04/30/2016 634.15 46677 207 64327 -17650 29 144 144 0.00 0.00 10 25 84 0.24
05/01/2016 634.28 46870 193 64594 -17724 27 136 136 0.03 0.00 14 31 86 0.28
05/02/2016 634.40 47048 178 64858 -17810 31 131 131 0.00 0.02 15 31 51 0.25
05/03/2016 634.50 47197 149 65112 -17915 34 120 120 0.00 0.01 14 32 56 0.25
05/04/2016 634.60 47347 150 65369 -18022 36 120 120 0.00 0.00 16 29 63 0.20
05/05/2016 634.72 47527 180 65646 -18119 36 134 134 0.00 0.00 13 24 85 0.17
05/06/2016 634.90 47798 271 72825 -18171 29 171 171 0.17 0.00 13 22 56 0.13
05/07/2016 635.10 48101 303 73079 -18193 12 171 171 0.07 0.13 12 22 55 0.13
05/08/2016 635.29 48390 289 73314 -18213 2 154 154 0.00 0.07 10 23 66 0.15
05/09/2016 635.46 48650 260 73480 -24830 4 146 146 0.08 0.00 16 29 60 0.25
05/10/2016 635.62 48896 246 72310 -24867 8 144 144 0.02 0.00 13 31 61 0.26
05/11/2016 635.78 49143 247 73328 -25620 10 147 147 0.02 0.00 16 34 56 0.28
05/12/2016 635.96 49423 280 74367 -24944 10 164 164 0.03 0.00 18 37 55 0.30
05/13/2016 636.14 49703 280 75368 -25665 10 165 165 0.00 0.00 16 36 70 0.30
05/14/2016 636.34 50017 314 76273 -26256 5 175 175 0.00 0.00 14 28 82 0.27
05/15/2016 636.53 50316 299 77165 -26849 1 164 164 0.00 0.00 12 28 60 0.25
05/16/2016 636.71 50602 286 78057 -27455 6 163 163 0.02 0.00 13 30 68 0.28
05/17/2016 636.87 50856 254 79361 -28078 8 149 149 0.02 0.00 16 32 68 0.29
05/18/2016 637.00 51064 208 80223 -28732 16 136 136 0.02 0.00 19 35 72 0.32
05/19/2016 637.11 51241 177 81084 -29843 31 134 134 0.00 0.00 18 35 73 0.31
05/20/2016 637.22 51418 177 81933 -30515 22 124 124 0.00 0.00 11 24 103 0.26
05/21/2016 637.33 51595 177 82300 -30705 20 120 120 0.00 0.00 8 23 65 0.24
05/22/2016 637.43 51757 162 82300 -30543 20 114 114 0.00 0.00 8 26 58 0.25
05/23/2016 637.52 51904 147 82300 -30396 26 112 112 0.00 0.00 9 26 72 0.26
05/24/2016 637.59 52017 113 82300 -30283 35 103 103 0.00 0.00 14 26 81 0.24
05/25/2016 637.66 52132 115 82300 -30168 32 100 -- 0.00 0.00 13 25 77 0.20
05/26/2016 637.74 52262 130 82300 -30038 30 108 -- 0.00 0.00 16 30 69 0.28
05/27/2016 -- -- -- -- -- -- -- -- -- 0.00 -- -- -- --

Later | Latest

Warning! This data is preliminary and subject to revision.

Show SCC Map | Plot SCC Data | 1 Month SCC Data | Real-Time SCC Data | SCC Info